LETO/TOJ METAR and TAF weather

Enter ICAO airport designator
Station Type Date Time Source
LETO METAR 2021/05/12 05:30 UTC NOAA

LETO 120530Z 23013KT 200V270 9999 SCT050 BKN060 09/07 Q1018 NOSIG


Station Type Date Time Source
LETO Decoded METAR 2021/05/12 05:30 UTC NOAA

Madrid / Torrejon, Spain (LETO) 40-29N 003-27W 611M
May 12, 2021 - 01:30 AM EDT / 2021.05.12 0530 UTC
Wind: from the SW (230 degrees) at 15 MPH (13 KT) (direction variable):0
Visibility: greater than 7 mile(s):0
Sky conditions: mostly cloudy
Temperature: 48 F (9 C)
Dew Point: 44 F (7 C)
Relative Humidity: 87%
Pressure (altimeter): 30.06 in. Hg (1018 hPa)
ob: LETO 120530Z 23013KT 200V270 9999 SCT050 BKN060 09/07 Q1018 NOSIG
cycle: 5

Station Type Date Time Source
LETO TAF 2021/05/12 06:27 UTC NOAA

TAF TAF LETO 120500Z 1206/1306 23010KT 9999 SCT050 TX21/1215Z TN07/1305Z PROB30
TEMPO 1206/1209 DZ BKN014 PROB40
TEMPO 1206/1211 23015G25KT
BECMG 1211/1214 30010KT
TEMPO 1211/1219 29015G25KT
BECMG 1300/1302 VRB03KT

Example: see airport list